Flight Track Log - Related Links

Times and Time Zones

All times are in EDT time to prevent confusion due to time zone crossing. See the UAL1715 flight status page for this flight to view local times or setup timezone preferences in your user account.

Time Position Orientation Groundspeed Altitude Reporting Facility
EDT Latitude Longitude Course Direction KTS MPH feet Rate Location/Type
Thu 03:37:31 PM 45.7636 -111.1367 132° Southeast 216 249 5,100  Level Salt Center
Thu 03:38:29 PM 45.7278 -111.0806 132° Southeast 199 229 7,300 2,557 Climbing Salt Center
Thu 03:39:26 PM 45.6747 -111.0042 135° Southeast 272 313 10,000 3,000 Climbing Salt Center
Thu 03:40:33 PM 45.6525 -110.8728 104° East 313 360 13,500 2,859 Climbing Salt Center
Thu 03:42:37 PM 45.5172 -110.6814 148° Southeast 362 417 19,100 2,774 Climbing Salt Center
Thu 03:43:39 PM 45.4244 -110.5933 146° Southeast 396 456 22,100 2,742 Climbing Salt Center
Thu 03:45:43 PM 45.2364 -110.4222 148° Southeast 397 457 27,600 2,387 Climbing Salt Center
Thu 03:46:45 PM 45.1300 -110.3733 162° South 410 472 29,500 2,065 Climbing Salt Center
Thu 03:48:49 PM 44.9042 -110.4306 149° Southeast 407 468 34,000 1,774 Climbing Salt Center
Thu 03:49:51 PM 44.8019 -110.4933 204° Southwest 400 460 35,000 629 Climbing Salt Center
Thu 03:50:53 PM 44.6858 -110.5842 209° Southwest 397 457 35,300 968 Climbing Salt Center
Thu 03:51:55 PM 44.5778 -110.6294 197° South 410 472 37,000 1,548 Climbing Salt Center
Thu 03:52:57 PM 44.4708 -110.5706 159° South 433 498 38,500 968 Climbing Salt Center
Thu 03:53:59 PM 44.3769 -110.4592 140° Southeast 440 506 39,000 242 Climbing Salt Center
Thu 03:55:01 PM 44.2803 -110.3483 141° Southeast 446 513 39,000  Level Salt Center
Thu 03:56:03 PM 44.1831 -110.2353 140° Southeast 450 518 39,000  Level Salt Center
Thu 03:58:07 PM 43.9689 -109.9917 141° Southeast 454 522 39,000  Level Salt Center
Thu 03:59:09 PM 43.8703 -109.8814 141° Southeast 454 522 39,000  Level Salt Center
Thu 04:01:13 PM 43.6756 -109.6594 140° Southeast 454 522 39,000  Level Salt Center
Thu 04:02:15 PM 43.5772 -109.5489 141° Southeast 454 522 39,000  Level Salt Center
Thu 04:03:17 PM 43.4731 -109.4328 141° Southeast 455 524 39,000  Level Salt Center
Thu 04:04:19 PM 43.3747 -109.3244 141° Southeast 456 525 39,000  Level Salt Center
Thu 04:07:24 PM 43.0600 -108.9772 141° Southeast 456 525 39,000  Level Salt Center
Thu 04:09:28 PM 42.8564 -108.7517 141° Southeast 461 531 39,000  Level Salt Center
Thu 04:10:30 PM 42.7597 -108.6453 141° Southeast 462 532 39,000  Level Salt Center
Thu 04:12:33 PM 42.5492 -108.4178 141° Southeast 465 535 39,000  Level Salt Center
Thu 04:14:45 PM 42.3197 -108.1731 142° Southeast 467 537 39,000  Level Denver Center
Thu 04:15:47 PM 42.2233 -108.0706 142° Southeast 465 535 39,000 -91 Level Denver Center
Thu 04:21:22 PM 41.6693 -107.4158 125° Southeast 476 548 38,400 -179 Descending FlightAware
Thu 04:21:56 PM 41.6267 -107.3344 125° Southeast 477 549 37,900 -955 Descending FlightAware
Thu 04:22:50 PM 41.5564 -107.2006 125° Southeast 478 550 37,000 -621 Descending FlightAware
Thu 04:23:52 PM 41.4782 -107.0518 125° Southeast 477 549 36,700 -662 Descending FlightAware
Thu 04:25:15 PM 41.3762 -106.8577 122° Southeast 472 543 35,400 -829 Descending FlightAware (KEIK)
Thu 04:25:55 PM 41.3359 -106.7520 115° Southeast 476 548 35,000 -338 Descending FlightAware (KEIK)
Thu 04:26:26 PM 41.3045 -106.6687 117° Southeast 473 544 35,000  Level FlightAware (KEIK)
Thu 04:26:56 PM 41.2748 -106.5920 117° Southeast 472 543 35,000  Level FlightAware (KEIK)
Thu 04:27:35 PM 41.2350 -106.4894 117° Southeast 472 543 35,000  Level FlightAware (KEIK)
Thu 04:28:05 PM 41.2051 -106.4122 117° Southeast 473 544 35,000  Level FlightAware
Thu 04:28:25 PM 41.1896 -106.3570 106° East 475 547 35,000  Level FlightAware (KEIK)
Thu 04:28:45 PM 41.1861 -106.3014 88° East 473 544 35,000  Level FlightAware (KEIK)
Thu 04:28:55 PM 41.1880 -106.2776 80° East 472 543 35,000  Level FlightAware (KEIK)
Thu 04:29:03 PM 41.1908 -106.2598 68° East 470 541 35,000  Level FlightAware
Thu 04:29:38 PM 41.2237 -106.1629 63° Northeast 468 539 35,000  Level FlightAware (KEIK)
Thu 04:30:18 PM 41.2639 -106.0571 63° Northeast 469 540 35,000  Level FlightAware (KEIK)
Thu 04:31:00 PM 41.3001 -105.9617 63° Northeast 470 541 35,000 -333 Level FlightAware (KEIK)
Thu 04:31:30 PM 41.3343 -105.8719 63° Northeast 469 540 34,600 -1,167 Descending FlightAware (KEIK)
Thu 04:32:12 PM 41.3753 -105.7648 64° Northeast 473 544 33,600 -1,247 Descending FlightAware (KEIK)
Thu 04:32:47 PM 41.4047 -105.6862 63° Northeast 479 551 33,000 -837 Descending FlightAware (KEIK)
Thu 04:32:55 PM 41.4055 -105.6841 68° East 479 551 33,000  Level FlightAware
Thu 04:33:16 PM 41.4322 -105.5935 81° East 481 554 33,000  Level FlightAware (KEIK)
Thu 04:33:26 PM 41.4330 -105.5623 91° East 483 556 33,000 -333 Level FlightAware (KEIK)
Thu 04:33:34 PM 41.4305 -105.5382 102° East 483 556 32,900 -783 Descending FlightAware (KEIK)
Thu 04:33:49 PM 41.4199 -105.4967 112° Southeast 482 555 32,700 -1,778 Descending FlightAware
Thu 04:34:28 PM 41.3898 -105.3944 111° Southeast 468 539 31,300 -2,700 Descending FlightAware (KEIK)
Thu 04:35:09 PM 41.3574 -105.2822 111° Southeast 464 534 29,100 -3,750 Descending FlightAware (KEIK)
Thu 04:35:48 PM 41.3266 -105.1746 111° Southeast 474 545 26,300 -3,600 Descending FlightAware
Thu 04:36:19 PM 41.3035 -105.0944 111° Southeast 464 534 24,900 -2,704 Descending FlightAware (KEIK)
Thu 04:36:59 PM 41.2772 -105.0019 111° Southeast 447 514 23,100 -2,625 Descending FlightAware (KEIK)
Thu 04:37:39 PM 41.2453 -104.8911 111° Southeast 431 496 21,400 -2,261 Descending FlightAware (KEIK)
Thu 04:38:08 PM 41.2177 -104.8194 129° Southeast 425 489 20,500 -2,000 Descending FlightAware
Thu 04:38:21 PM 41.2010 -104.7981 142° Southeast 425 489 20,000 -1,765 Descending FlightAware (KEIK)
Thu 04:38:42 PM 41.1645 -104.7729 161° South 418 481 19,500 -1,455 Descending FlightAware (KEIK)
Thu 04:38:54 PM 41.1456 -104.7676 172° South 414 476 19,200 -1,696 Descending FlightAware (KEIK)
Thu 04:39:28 PM 41.0805 -104.7618 177° South 414 476 18,200 -1,714 Descending FlightAware
Thu 04:40:04 PM 41.0099 -104.7561 177° South 407 468 17,200 -1,676 Descending FlightAware (KEIK)
Thu 04:40:36 PM 40.9510 -104.7515 177° South 395 455 16,300 -1,524 Descending FlightAware (KEIK)
Thu 04:41:07 PM 40.9002 -104.7477 177° South 394 453 15,600 -1,355 Descending FlightAware (KEIK)
Thu 04:42:09 PM 40.7817 -104.7429 182° South 386 444 14,200 -1,224 Descending FlightAware (KEIK)
Thu 04:42:45 PM 40.7239 -104.7458 182° South 386 444 13,600 -935 Descending FlightAware (KEIK)
Thu 04:43:26 PM 40.6590 -104.7496 183° South 381 438 13,000 -676 Descending FlightAware (KEIK)
Thu 04:43:56 PM 40.6001 -104.7537 183° South 377 434 12,800 -185 Descending FlightAware (KEIK)
Thu 04:44:31 PM 40.5378 -104.7584 183° South 375 432 12,800  Level FlightAware (KEIK)
Thu 04:45:01 PM 40.4811 -104.7625 183° South 377 434 12,800  Level FlightAware (KEIK)
Thu 04:45:35 PM 40.4250 -104.7666 183° South 375 432 12,800  Level FlightAware (KEIK)
Thu 04:46:05 PM 40.3689 -104.7709 183° South 374 430 12,800  Level FlightAware (KEIK)
Thu 04:46:39 PM 40.3162 -104.7750 184° South 374 430 12,800  Level FlightAware (KEIK)
Thu 04:47:20 PM 40.2409 -104.7814 183° South 374 430 12,800  Level FlightAware (KEIK)
Thu 04:47:59 PM 40.1740 -104.7857 183° South 375 432 12,800  Level FlightAware (KEIK)
Thu 04:48:30 PM 40.1183 -104.7888 182° South 373 429 12,800  Level FlightAware (KEIK)
Thu 04:49:02 PM 40.0638 -104.7917 183° South 373 429 12,800 -486 Level FlightAware (KEIK)
Thu 04:49:44 PM 39.9949 -104.7958 183° South 372 428 12,200 -1,583 Descending FlightAware (KEIK)
Thu 04:50:14 PM 39.9408 -104.7993 183° South 364 419 10,900 -1,355 Descending FlightAware (KEIK)
Thu 04:50:46 PM 39.8891 -104.8027 182° South 330 380 10,800 -82 Descending FlightAware (KEIK)
Thu 04:51:27 PM 39.8318 -104.8057 182° South 280 322 10,800  Level FlightAware (KEIK)
Thu 04:51:57 PM 39.7941 -104.8079 183° South 258 297 10,800 -500 Level FlightAware (KEIK)
Thu 04:52:27 PM 39.7606 -104.8098 181° South 244 281 10,300 -1,059 Descending FlightAware (KEIK)
Thu 04:52:48 PM 39.7477 -104.8101 180° South 238 274 9,900 -1,000 Descending FlightAware (KEIK)
Thu 04:52:57 PM 39.7256 -104.8083 167° South 233 268 9,800 -947 Descending FlightAware (KEIK)
Thu 04:53:07 PM 39.7159 -104.8036 152° Southeast 229 264 9,600 -1,263 Descending FlightAware (KEIK)
Thu 04:53:16 PM 39.7085 -104.7974 143° Southeast 226 260 9,400 -1,143 Descending FlightAware (KEIK)
Thu 04:53:28 PM 39.7024 -104.7899 127° Southeast 220 253 9,200 -933 Descending FlightAware (KEIK)
Thu 04:54:01 PM 39.6918 -104.7454 87° East 209 241 8,700 -977 Descending FlightAware (KEIK)
Thu 04:54:11 PM 39.6938 -104.7332 76° East 210 242 8,500 -1,263 Descending FlightAware (KEIK)
Thu 04:54:20 PM 39.6971 -104.7228 64° Northeast 209 241 8,300 -900 Descending FlightAware (KEIK)
Thu 04:54:31 PM 39.7028 -104.7119 52° Northeast 205 236 8,200 -571 Descending FlightAware (KEIK)
Thu 04:54:41 PM 39.7083 -104.7044 42° Northeast 203 234 8,100 -900 Descending FlightAware (KEIK)
Thu 04:54:51 PM 39.7153 -104.6976 31° Northeast 204 235 7,900 -960 Descending FlightAware (KEIK)
Thu 04:55:31 PM 39.7535 -104.6885 North 205 236 7,300 -1,000 Descending FlightAware (KEIK)
Thu 04:55:39 PM 39.7625 -104.6885 360° North 202 232 7,100 -1,000 Descending FlightAware (KEIK)
Thu 04:56:01 PM 39.7803 -104.6884 North 196 226 6,800 -923 Descending FlightAware (KEIK)
Thu 04:56:31 PM 39.8073 -104.6880 359° North 175 201 6,300 -1,000 Descending FlightAware (KEIK)
Thu 04:56:37 PM 39.8119 -104.6880 North 172 198 6,200 -1,059 Descending FlightAware (KEIK)
Thu 04:56:48 PM 39.8192 -104.6880 360° North 164 189 6,000 -977 Descending FlightAware (KEIK)
Thu 04:57:20 PM 39.8443 -104.6875 North 158 182 5,500 -837 Descending FlightAware (KEIK)
Thu 04:57:31 PM 39.8481 -104.6874 360° North 160 184 5,400 -511 Descending FlightAware (KEIK)
Thu 04:58:07 PM 39.8780 -104.6871 North 120 138 5,100 -500 Descending FlightAware (KEIK)
Thu 05:05:00 PM 39.8617 -104.6732 180° South  Level Estimated
Thu 05:06:00 PM 39.8617 -104.6732 180° South  Level Estimated
Thu 05:07:00 PM 39.8617 -104.6732 180° South  Level Estimated
Thu 05:08:00 PM 39.8617 -104.6732 180° South  Level Estimated

Login

Don't have an account? Register now (free) for customized features, flight alerts, and more!